LFBI/PIS METAR and TAF weather

Enter ICAO airport designator
Station Type Date Time Source
LFBI METAR 2021/09/24 06:00 UTC NOAA

LFBI 240600Z AUTO 00000KT CAVOK 08/06 Q1019 NOSIG


Station Type Date Time Source
LFBI Decoded METAR 2021/09/24 06:00 UTC NOAA

Poitiers, France (LFBI) 46-35N 000-19E 120M
Sep 24, 2021 - 02:00 AM EDT / 2021.09.24 0600 UTC
Wind: Calm:0
Visibility: greater than 7 mile(s):0
Temperature: 46 F (8 C)
Dew Point: 42 F (6 C)
Relative Humidity: 87%
Pressure (altimeter): 30.09 in. Hg (1019 hPa)
ob: LFBI 240600Z AUTO 00000KT CAVOK 08/06 Q1019 NOSIG
cycle: 6

Station Type Date Time Source
LFBI TAF 2021/09/24 06:21 UTC NOAA

TAF LFBI 240500Z 2406/2506 VRB03KT CAVOK

Example: see airport list